Time;durP1;ratioP1;P1;durP2;ratioP2;P2;SDS_P1;SDS_P2;PMS_P1;PMS_P2;Temp;Humidity;BMP_temperature;BMP_pressure;BME280_temperature;BME280_humidity;BME280_pressure;Samples;Min_cycle;Max_cycle;Signal;HPM_P1;HPM_P2
2021/08/14 00:01:59;;;;;;;8.67;5.37;;;;;;;27.89;60.13;98600.75;5018624;28;20219;-75
2021/08/14 00:04:26;;;;;;;7.53;5.40;;;;;;;28.35;58.26;98590.63;5018603;28;20210;-75
2021/08/14 00:06:53;;;;;;;6.20;4.73;;;;;;;28.21;59.07;98592.53;5024580;28;20211;-74
2021/08/14 00:09:22;;;;;;;9.03;5.43;;;;;;;28.13;59.64;98597.88;5024062;28;20214;-75
2021/08/14 00:11:49;;;;;;;8.43;5.20;;;;;;;27.90;61.13;98591.38;5012812;28;20695;-75
2021/08/14 00:14:17;;;;;;;7.20;5.50;;;;;;;27.89;61.47;98599.91;5012012;28;20679;-75
2021/08/14 00:16:45;;;;;;;8.37;4.93;;;;;;;28.11;60.36;98600.94;5012117;28;20233;-76
2021/08/14 00:19:12;;;;;;;11.80;5.40;;;;;;;28.16;59.96;98600.00;5021419;28;20203;-75
2021/08/14 00:21:39;;;;;;;7.70;4.90;;;;;;;28.18;59.70;98598.59;5022904;28;20260;-76
2021/08/14 00:24:07;;;;;;;7.67;5.43;;;;;;;27.99;61.02;98599.75;5031912;28;20658;-75
2021/08/14 00:26:35;;;;;;;6.80;5.13;;;;;;;27.87;61.93;98604.91;5018746;28;20211;-74
2021/08/14 00:29:03;;;;;;;8.93;5.33;;;;;;;27.93;61.80;98600.94;5010066;28;20207;-75
2021/08/14 00:31:30;;;;;;;7.73;5.53;;;;;;;27.80;61.37;98598.94;5019758;28;20230;-74
2021/08/14 00:33:58;;;;;;;8.53;5.00;;;;;;;27.73;62.22;98593.00;5017170;28;20203;-74
2021/08/14 00:36:25;;;;;;;7.50;4.83;;;;;;;27.60;62.44;98588.25;5021943;28;20205;-74
2021/08/14 00:38:53;;;;;;;7.50;4.93;;;;;;;27.67;63.04;98588.72;5019452;28;20214;-75
2021/08/14 00:41:21;;;;;;;7.73;4.73;;;;;;;27.86;61.66;98589.53;5016273;28;20310;-74
2021/08/14 00:43:49;;;;;;;7.17;5.00;;;;;;;27.90;61.46;98587.81;5015192;28;20207;-74
2021/08/14 00:46:20;;;;;;;8.87;4.87;;;;;;;27.81;61.83;98586.84;5021962;28;20230;-77
2021/08/14 00:48:47;;;;;;;7.80;5.13;;;;;;;27.66;62.88;98576.91;5008499;28;20207;-75
2021/08/14 00:51:14;;;;;;;7.40;4.93;;;;;;;27.73;62.83;98574.63;5014985;28;20223;-75
2021/08/14 00:53:42;;;;;;;10.03;5.53;;;;;;;27.45;64.43;98572.00;5024759;28;20206;-75
2021/08/14 00:56:09;;;;;;;7.07;4.77;;;;;;;27.62;64.06;98567.63;5013678;28;20211;-75
2021/08/14 00:58:37;;;;;;;9.17;5.20;;;;;;;27.58;63.62;98569.38;5014071;28;20204;-74
2021/08/14 01:01:06;;;;;;;9.27;5.27;;;;;;;27.50;63.86;98570.00;5023977;28;20219;-74
2021/08/14 01:03:34;;;;;;;6.57;5.40;;;;;;;27.62;63.54;98569.59;5019667;28;20213;-76
2021/08/14 01:06:01;;;;;;;9.37;5.57;;;;;;;27.69;62.93;98564.53;5031532;28;20799;-75
2021/08/14 01:08:28;;;;;;;8.23;5.13;;;;;;;27.92;62.10;98560.91;5023588;28;20686;-75
2021/08/14 01:10:56;;;;;;;8.93;5.47;;;;;;;27.93;61.60;98560.59;5013984;28;20237;-75
2021/08/14 01:13:24;;;;;;;6.93;5.10;;;;;;;27.73;62.50;98560.91;5011155;28;20203;-75
2021/08/14 01:15:52;;;;;;;7.73;5.57;;;;;;;27.89;61.66;98562.31;5014961;28;20206;-75
2021/08/14 01:18:21;;;;;;;7.93;5.40;;;;;;;27.77;61.87;98566.59;5018983;28;20217;-74
2021/08/14 01:20:48;;;;;;;7.50;5.13;;;;;;;27.84;61.38;98569.81;5022336;28;20324;-75
2021/08/14 01:23:17;;;;;;;6.97;4.80;;;;;;;27.86;61.11;98560.16;5029612;28;20276;-75
2021/08/14 01:25:44;;;;;;;6.17;4.87;;;;;;;27.55;62.02;98553.50;5017085;28;20207;-75
2021/08/14 01:28:13;;;;;;;6.87;5.50;;;;;;;27.83;60.57;98566.25;5011113;28;20282;-75
2021/08/14 01:30:41;;;;;;;7.83;5.10;;;;;;;27.68;61.36;98562.91;5022714;28;20288;-74
2021/08/14 01:33:12;;;;;;;7.30;5.20;;;;;;;27.64;61.29;98562.69;5015407;28;20214;-75
2021/08/14 01:35:40;;;;;;;6.70;5.00;;;;;;;27.60;61.64;98566.31;5022614;28;20203;-74
2021/08/14 01:38:08;;;;;;;5.43;4.77;;;;;;;27.31;63.41;98555.47;5019885;28;20207;-74
2021/08/14 01:40:36;;;;;;;9.37;4.90;;;;;;;27.45;62.81;98563.78;5016700;28;20231;-74
2021/08/14 01:43:03;;;;;;;7.30;5.17;;;;;;;27.41;62.48;98560.03;5010929;28;20204;-75
2021/08/14 01:45:32;;;;;;;11.47;5.27;;;;;;;27.35;62.90;98558.44;5021979;28;20684;-75
2021/08/14 01:47:59;;;;;;;8.10;4.80;;;;;;;27.32;62.74;98557.09;5022539;28;20211;-75
2021/08/14 01:50:27;;;;;;;8.33;5.43;;;;;;;27.31;63.55;98558.22;5022674;28;20314;-74
2021/08/14 01:52:54;;;;;;;9.37;5.33;;;;;;;27.45;62.57;98558.28;5022081;28;20262;-75
2021/08/14 01:55:22;;;;;;;6.93;5.47;;;;;;;27.46;62.88;98557.22;5016148;28;20200;-75
2021/08/14 01:57:49;;;;;;;8.40;5.80;;;;;;;27.28;64.01;98555.25;5010045;28;20243;-75
2021/08/14 02:00:17;;;;;;;10.07;5.20;;;;;;;27.14;64.72;98548.81;5027088;28;20229;-74
2021/08/14 02:02:46;;;;;;;10.20;5.70;;;;;;;27.31;63.97;98554.69;5019917;28;20205;-75
2021/08/14 02:05:13;;;;;;;6.50;5.47;;;;;;;27.27;64.11;98553.63;5023415;28;20203;-74
2021/08/14 02:07:41;;;;;;;6.70;5.37;;;;;;;27.20;64.77;98542.19;5026004;28;20199;-74
2021/08/14 02:10:09;;;;;;;8.00;5.20;;;;;;;27.19;64.61;98557.00;5021829;28;20230;-74
2021/08/14 02:12:36;;;;;;;7.70;5.40;;;;;;;27.03;65.53;98550.06;5011775;28;20227;-75
2021/08/14 02:15:06;;;;;;;9.13;5.63;;;;;;;26.91;66.60;98555.16;5015085;28;20210;-74
2021/08/14 02:17:33;;;;;;;8.60;5.63;;;;;;;27.15;65.25;98561.41;5019703;28;20219;-75
2021/08/14 02:20:02;;;;;;;7.33;5.50;;;;;;;27.07;65.65;98557.41;5024478;28;20329;-77
2021/08/14 02:22:29;;;;;;;11.00;6.13;;;;;;;27.06;65.48;98555.78;5023081;28;20798;-77
2021/08/14 02:24:56;;;;;;;8.53;5.43;;;;;;;26.88;67.06;98555.75;5014136;28;20212;-77
2021/08/14 02:27:24;;;;;;;7.33;5.63;;;;;;;26.90;67.07;98557.06;5010946;28;20669;-77
2021/08/14 02:29:51;;;;;;;8.37;6.07;;;;;;;27.07;66.12;98559.34;5027694;28;20662;-77
2021/08/14 02:32:18;;;;;;;10.20;6.17;;;;;;;26.67;68.17;98551.59;5018142;28;20597;-77
2021/08/14 02:34:45;;;;;;;9.00;5.13;;;;;;;26.72;68.42;98554.28;5020510;28;20838;-77
2021/08/14 02:37:14;;;;;;;7.87;5.90;;;;;;;26.62;69.22;98548.94;5025466;28;20234;-77
2021/08/14 02:39:41;;;;;;;14.13;5.80;;;;;;;26.71;68.80;98553.47;5012382;28;20211;-78
2021/08/14 02:42:09;;;;;;;7.50;5.97;;;;;;;26.87;67.90;98545.91;5012631;28;20576;-77
2021/08/14 02:44:36;;;;;;;9.93;5.30;;;;;;;26.75;68.40;98548.25;5014413;28;20782;-77
2021/08/14 02:47:04;;;;;;;8.93;5.77;;;;;;;26.72;68.76;98546.91;5024950;28;20207;-77
2021/08/14 02:49:31;;;;;;;9.73;5.93;;;;;;;26.77;68.68;98548.75;5027269;28;20210;-77
2021/08/14 02:51:58;;;;;;;9.83;5.83;;;;;;;26.88;67.93;98545.59;5022388;28;20227;-77
2021/08/14 02:54:27;;;;;;;9.37;5.87;;;;;;;26.93;67.35;98542.81;5013365;28;20564;-77
2021/08/14 02:56:54;;;;;;;12.27;6.20;;;;;;;26.98;66.71;98552.88;5010972;28;20206;-77
2021/08/14 02:59:21;;;;;;;14.10;5.97;;;;;;;26.84;67.68;98546.47;5027754;28;20241;-77
2021/08/14 03:01:49;;;;;;;9.27;5.70;;;;;;;26.62;68.96;98544.28;5012533;28;20223;-77
2021/08/14 03:04:16;;;;;;;9.17;6.03;;;;;;;26.64;68.15;98541.22;5017027;28;20218;-77
2021/08/14 03:06:43;;;;;;;8.70;6.10;;;;;;;26.64;68.97;98541.22;5024306;28;20203;-77
2021/08/14 03:09:10;;;;;;;10.17;6.10;;;;;;;26.68;68.31;98540.38;5011419;28;20315;-77
2021/08/14 03:11:39;;;;;;;9.60;5.63;;;;;;;26.57;69.21;98538.03;5016340;28;20235;-78
2021/08/14 03:14:06;;;;;;;6.87;5.57;;;;;;;26.39;70.33;98541.47;5023434;28;20217;-77
2021/08/14 03:16:34;;;;;;;8.90;6.07;;;;;;;26.45;69.83;98545.81;5017529;28;20206;-78
2021/08/14 03:19:01;;;;;;;7.27;6.00;;;;;;;26.33;71.03;98540.72;5020416;28;20207;-77
2021/08/14 03:21:28;;;;;;;7.93;5.93;;;;;;;26.46;70.35;98539.22;5022027;28;20235;-77
2021/08/14 03:23:56;;;;;;;8.83;6.13;;;;;;;26.20;71.64;98535.91;5013270;28;20202;-78
2021/08/14 03:26:25;;;;;;;12.10;5.47;;;;;;;26.43;70.91;98535.13;5017255;28;20207;-77
2021/08/14 03:28:54;;;;;;;8.30;6.37;;;;;;;26.44;71.04;98544.97;5021347;28;20277;-78
2021/08/14 03:31:21;;;;;;;9.90;6.53;;;;;;;26.45;70.66;98537.59;5020155;28;20229;-78
2021/08/14 03:33:48;;;;;;;12.53;5.57;;;;;;;26.35;71.14;98538.50;5017469;28;20297;-78
2021/08/14 03:36:16;;;;;;;7.23;5.90;;;;;;;26.31;72.11;98537.47;5023143;28;20211;-77
2021/08/14 03:38:43;;;;;;;8.43;6.33;;;;;;;26.52;70.01;98540.78;5012115;28;20221;-77
2021/08/14 03:41:11;;;;;;;9.70;6.17;;;;;;;26.55;69.35;98537.47;5026761;28;20233;-78
2021/08/14 03:43:38;;;;;;;8.90;5.80;;;;;;;26.51;70.36;98539.16;5016822;28;20232;-78
2021/08/14 03:46:07;;;;;;;7.70;6.13;;;;;;;26.37;71.34;98532.75;5014158;28;20211;-78
2021/08/14 03:48:35;;;;;;;7.87;5.47;;;;;;;26.42;70.66;98532.69;5028492;28;20215;-77
2021/08/14 03:51:03;;;;;;;7.53;5.57;;;;;;;26.57;69.83;98538.84;5012355;28;20717;-78
2021/08/14 03:53:31;;;;;;;9.33;6.40;;;;;;;26.49;70.34;98539.44;5007787;28;20227;-77
2021/08/14 03:55:58;;;;;;;8.67;5.60;;;;;;;26.34;71.35;98542.34;5011107;28;20225;-78
2021/08/14 03:58:26;;;;;;;9.43;5.90;;;;;;;26.40;70.92;98543.13;5014479;28;20213;-78
2021/08/14 04:00:53;;;;;;;9.87;6.10;;;;;;;26.38;70.51;98537.09;5022508;28;20245;-77
2021/08/14 04:03:22;;;;;;;12.40;6.00;;;;;;;26.29;71.88;98536.13;5016271;28;20206;-77
2021/08/14 04:05:49;;;;;;;7.77;6.20;;;;;;;26.31;72.05;98533.91;5009203;28;20215;-77
2021/08/14 04:08:18;;;;;;;8.90;6.80;;;;;;;26.40;71.62;98537.66;5021918;28;20218;-77
2021/08/14 04:10:46;;;;;;;8.80;6.33;;;;;;;26.44;70.74;98524.97;5026458;28;20236;-78
2021/08/14 04:13:13;;;;;;;8.73;6.57;;;;;;;26.60;69.61;98535.53;5021802;28;20228;-78
2021/08/14 04:15:40;;;;;;;9.20;6.40;;;;;;;26.47;70.33;98535.38;5016636;28;20692;-78
2021/08/14 04:18:08;;;;;;;8.53;6.13;;;;;;;26.49;69.85;98535.88;5016391;28;20664;-77
2021/08/14 04:20:36;;;;;;;10.43;6.07;;;;;;;26.48;69.90;98534.25;5010862;28;20242;-78
2021/08/14 04:23:04;;;;;;;10.07;6.80;;;;;;;26.40;71.04;98529.44;5018433;28;20208;-77
2021/08/14 04:25:31;;;;;;;7.10;5.90;;;;;;;26.32;71.30;98539.09;5023559;28;20288;-78
2021/08/14 04:27:59;;;;;;;7.57;5.67;;;;;;;26.50;70.50;98534.81;5025500;28;20206;-78
2021/08/14 04:30:26;;;;;;;8.90;6.40;;;;;;;26.30;72.01;98538.53;5017299;28;20240;-79
2021/08/14 04:32:53;;;;;;;9.20;6.30;;;;;;;26.48;70.69;98537.00;5011711;28;20269;-79
2021/08/14 04:35:21;;;;;;;8.93;5.90;;;;;;;26.35;71.23;98540.44;5014512;28;20215;-79
2021/08/14 04:37:50;;;;;;;9.60;6.60;;;;;;;26.50;70.55;98537.53;5014808;28;20670;-79
2021/08/14 04:40:17;;;;;;;7.27;5.90;;;;;;;26.57;70.06;98540.75;5024036;28;20229;-78
2021/08/14 04:42:45;;;;;;;8.37;6.30;;;;;;;26.66;69.58;98539.81;5023818;28;20213;-79
2021/08/14 04:45:13;;;;;;;8.27;6.37;;;;;;;26.63;69.99;98536.84;5026809;28;20211;-79
2021/08/14 04:47:40;;;;;;;10.20;6.57;;;;;;;26.24;72.73;98539.72;5012247;28;20213;-78
2021/08/14 04:50:09;;;;;;;8.47;6.17;;;;;;;26.71;70.70;98539.78;5011434;28;20227;-78
2021/08/14 04:52:36;;;;;;;8.00;6.00;;;;;;;26.75;70.07;98537.28;5018881;28;20237;-79
2021/08/14 04:55:05;;;;;;;9.33;6.03;;;;;;;26.96;68.95;98539.47;5024080;28;20207;-78
2021/08/14 04:57:33;;;;;;;8.83;6.67;;;;;;;27.12;67.95;98537.34;5015802;28;20207;-79
2021/08/14 05:00:00;;;;;;;8.33;5.87;;;;;;;27.30;67.13;98539.31;5026400;28;20233;-78
2021/08/14 05:02:27;;;;;;;8.67;6.17;;;;;;;27.46;66.17;98543.50;5010311;28;20200;-79
2021/08/14 05:04:54;;;;;;;9.73;6.23;;;;;;;27.60;65.59;98542.44;5010129;28;20236;-79
2021/08/14 05:07:22;;;;;;;16.67;7.07;;;;;;;27.65;65.46;98544.28;5018706;28;20217;-78
2021/08/14 05:09:50;;;;;;;8.67;5.90;;;;;;;27.78;65.17;98541.63;5013897;28;20203;-78
2021/08/14 05:12:19;;;;;;;10.33;6.77;;;;;;;27.92;64.37;98544.44;5014881;28;20219;-79
2021/08/14 05:14:46;;;;;;;8.57;6.67;;;;;;;27.93;63.67;98557.03;5011885;28;20820;-78
2021/08/14 05:17:13;;;;;;;8.50;6.57;;;;;;;27.99;63.75;98551.19;5010992;28;20572;-79
2021/08/14 05:19:41;;;;;;;8.43;6.23;;;;;;;28.23;62.74;98548.31;5017409;28;20203;-78
2021/08/14 05:22:08;;;;;;;9.43;5.87;;;;;;;28.36;62.34;98553.81;5017042;28;20199;-78
2021/08/14 05:24:35;;;;;;;9.50;6.37;;;;;;;28.60;61.33;98556.44;5026765;28;20664;-78
2021/08/14 05:27:02;;;;;;;8.47;5.90;;;;;;;28.70;59.50;98565.31;5020816;28;20682;-78
2021/08/14 05:29:31;;;;;;;9.03;5.80;;;;;;;28.70;59.08;98564.47;5017216;28;20216;-77
2021/08/14 05:31:58;;;;;;;8.97;5.90;;;;;;;28.67;59.82;98557.66;5012751;28;20245;-78
2021/08/14 05:34:26;;;;;;;10.23;5.87;;;;;;;28.66;59.29;98561.53;5017946;28;20214;-78
2021/08/14 05:36:53;;;;;;;7.50;6.13;;;;;;;28.98;57.31;98568.91;5008683;28;20207;-79
2021/08/14 05:39:20;;;;;;;9.57;6.20;;;;;;;29.39;56.31;98567.72;5024515;28;20222;-78
2021/08/14 05:41:52;;;;;;;9.60;6.23;;;;;;;29.47;56.24;98569.75;5021360;28;20236;-78
2021/08/14 05:44:19;;;;;;;8.10;5.60;;;;;;;29.66;55.21;98573.19;5018306;28;20258;-79
2021/08/14 05:46:48;;;;;;;7.33;5.93;;;;;;;29.87;54.00;98579.84;5014283;28;20667;-79
2021/08/14 05:49:15;;;;;;;10.90;6.23;;;;;;;29.95;53.55;98578.28;5022865;28;20565;-78
2021/08/14 05:51:42;;;;;;;8.73;6.23;;;;;;;30.11;52.74;98577.63;5019607;28;20592;-79
2021/08/14 05:54:10;;;;;;;9.67;6.77;;;;;;;30.04;52.73;98571.72;5026931;28;20222;-78
2021/08/14 05:56:38;;;;;;;8.13;5.53;;;;;;;30.22;52.81;98581.78;5025285;28;20207;-77
2021/08/14 05:59:06;;;;;;;10.40;6.80;;;;;;;29.72;52.92;98582.13;5022217;28;20216;-78
2021/08/14 06:01:33;;;;;;;9.63;5.93;;;;;;;30.47;50.25;98586.63;5021132;28;20247;-78
2021/08/14 06:04:02;;;;;;;10.37;6.50;;;;;;;29.74;52.47;98577.94;5022189;28;20581;-78
2021/08/14 06:06:29;;;;;;;12.23;6.13;;;;;;;30.17;50.94;98581.06;5022664;28;20223;-79
2021/08/14 06:08:56;;;;;;;10.03;6.23;;;;;;;30.54;49.99;98575.97;5026444;28;20603;-77
2021/08/14 06:11:23;;;;;;;9.73;5.73;;;;;;;30.88;48.91;98580.84;5025348;28;20226;-76
2021/08/14 06:13:51;;;;;;;8.47;6.73;;;;;;;29.24;54.31;98578.25;5013372;28;20229;-76
2021/08/14 06:16:19;;;;;;;10.13;6.53;;;;;;;28.52;58.57;98573.63;5013790;28;20201;-76
2021/08/14 06:18:47;;;;;;;10.77;6.37;;;;;;;30.35;50.36;98575.34;5013924;28;20210;-76
2021/08/14 06:21:15;;;;;;;10.53;6.40;;;;;;;30.83;48.74;98590.09;5024917;28;20733;-77
2021/08/14 06:23:43;;;;;;;13.90;6.60;;;;;;;31.03;48.21;98588.69;5024436;28;20215;-77
2021/08/14 06:26:10;;;;;;;8.50;6.53;;;;;;;30.96;47.70;98589.16;5023847;28;20209;-75
2021/08/14 06:28:37;;;;;;;10.53;5.97;;;;;;;30.68;47.45;98590.50;5021801;28;20217;-78
2021/08/14 06:31:04;;;;;;;7.33;5.53;;;;;;;31.27;46.63;98587.16;5019779;28;20711;-77
2021/08/14 06:33:32;;;;;;;7.90;5.80;;;;;;;31.43;45.73;98582.03;5021021;28;20222;-77
2021/08/14 06:35:59;;;;;;;9.30;6.23;;;;;;;30.91;48.72;98580.22;5030727;28;20213;-77
2021/08/14 06:38:28;;;;;;;12.23;6.70;;;;;;;31.25;47.01;98592.22;5027533;28;20221;-78
2021/08/14 06:40:55;;;;;;;12.23;7.00;;;;;;;30.59;48.72;98575.00;5030401;28;20237;-76
2021/08/14 06:43:22;;;;;;;11.17;6.30;;;;;;;31.49;46.13;98586.25;5016904;28;20199;-78
2021/08/14 06:45:50;;;;;;;10.53;6.20;;;;;;;31.58;45.54;98592.59;5016568;28;20375;-78
2021/08/14 06:48:17;;;;;;;8.33;5.97;;;;;;;31.96;43.71;98590.84;5010967;28;20232;-78
2021/08/14 06:50:44;;;;;;;7.53;5.50;;;;;;;31.84;44.03;98588.75;5010698;28;21219;-78
2021/08/14 06:53:12;;;;;;;8.18;5.68;;;;;;;31.93;43.82;98586.78;5013332;28;20230;-78
2021/08/14 06:55:41;;;;;;;7.32;5.68;;;;;;;31.68;44.74;98584.00;5023713;28;20210;-78
2021/08/14 06:58:08;;;;;;;10.07;5.22;;;;;;;31.40;45.91;98583.47;5025085;28;20215;-78
2021/08/14 07:00:35;;;;;;;9.05;5.43;;;;;;;32.39;42.73;98591.66;5022263;28;20231;-78
2021/08/14 07:03:03;;;;;;;6.90;5.47;;;;;;;32.81;42.50;98588.81;5026369;28;20199;-79
2021/08/14 07:05:30;;;;;;;9.65;6.13;;;;;;;33.17;40.69;98596.63;5012856;28;20216;-78
2021/08/14 07:07:58;;;;;;;7.90;5.70;;;;;;;33.24;40.25;98597.72;5015415;28;20207;-79
2021/08/14 07:10:25;;;;;;;8.13;5.20;;;;;;;32.75;41.40;98594.81;5021819;28;20223;-79
2021/08/14 07:12:54;;;;;;;7.15;5.50;;;;;;;33.37;40.41;98596.72;5027534;28;20218;-77
2021/08/14 07:15:21;;;;;;;8.68;5.28;;;;;;;32.43;42.95;98585.16;5022712;28;20223;-78
2021/08/14 07:17:49;;;;;;;7.38;5.28;;;;;;;33.25;40.78;98585.50;5011479;28;20690;-77
2021/08/14 07:20:16;;;;;;;8.23;5.65;;;;;;;33.47;39.83;98595.50;5012531;28;20264;-78
2021/08/14 07:22:44;;;;;;;8.15;5.97;;;;;;;32.00;43.28;98586.31;5015968;28;20210;-75
2021/08/14 07:25:11;;;;;;;12.25;5.55;;;;;;;31.86;43.27;98578.19;5013531;28;20203;-78
2021/08/14 07:27:38;;;;;;;7.10;5.63;;;;;;;31.69;44.02;98574.59;5014359;28;20671;-79
2021/08/14 07:30:09;;;;;;;10.23;5.35;;;;;;;30.75;46.84;98573.47;5012184;28;20261;-76
2021/08/14 07:32:37;;;;;;;7.05;5.03;;;;;;;30.82;47.04;98565.59;5011241;28;20203;-76
2021/08/14 07:35:05;;;;;;;8.48;5.53;;;;;;;30.90;47.34;98568.38;5010378;28;20199;-76
2021/08/14 07:37:32;;;;;;;7.90;5.10;;;;;;;30.75;47.57;98573.47;5016435;28;20206;-74
2021/08/14 07:40:00;;;;;;;8.95;5.38;;;;;;;30.60;48.19;98563.66;5014634;28;20203;-78
2021/08/14 07:42:27;;;;;;;12.07;6.05;;;;;;;30.25;49.47;98556.34;5015219;28;20286;-76
2021/08/14 07:44:55;;;;;;;10.65;5.30;;;;;;;31.61;44.03;98570.69;5024843;28;20214;-76
2021/08/14 07:47:24;;;;;;;8.32;5.32;;;;;;;32.87;41.31;98578.38;5019634;28;20204;-76
2021/08/14 07:49:51;;;;;;;6.07;4.75;;;;;;;33.41;39.94;98580.25;5013662;28;20204;-77
2021/08/14 07:52:19;;;;;;;7.78;4.95;;;;;;;33.76;39.33;98581.63;5019684;28;20290;-77
2021/08/14 07:54:46;;;;;;;8.77;5.40;;;;;;;34.05;39.53;98584.34;5023267;28;20591;-79
2021/08/14 07:57:13;;;;;;;7.50;5.70;;;;;;;34.21;38.57;98583.38;5031544;28;20278;-78
2021/08/14 07:59:40;;;;;;;8.75;5.50;;;;;;;34.24;37.99;98579.94;5031539;28;20214;-78
2021/08/14 08:02:08;;;;;;;8.88;4.97;;;;;;;34.82;37.12;98572.50;5025038;28;20207;-77
2021/08/14 08:04:37;;;;;;;10.75;5.40;;;;;;;34.98;35.90;98571.50;5011472;28;20688;-76
2021/08/14 08:07:05;;;;;;;8.20;5.68;;;;;;;35.32;35.71;98579.41;5015879;28;20252;-77
2021/08/14 08:09:32;;;;;;;7.15;4.97;;;;;;;34.36;37.64;98568.91;5017973;28;20218;-80
2021/08/14 08:11:59;;;;;;;9.13;5.40;;;;;;;34.67;36.64;98568.41;5011959;28;20233;-78
2021/08/14 08:14:27;;;;;;;10.02;5.47;;;;;;;35.07;35.40;98569.41;5015840;28;20699;-76
2021/08/14 08:16:54;;;;;;;7.40;4.85;;;;;;;35.62;34.86;98575.19;5007979;28;20211;-78
2021/08/14 08:19:21;;;;;;;12.15;5.25;;;;;;;33.87;37.33;98577.34;5006912;28;20202;-75
2021/08/14 08:21:50;;;;;;;6.95;5.38;;;;;;;34.21;37.19;98565.94;5012311;28;20246;-76
2021/08/14 08:24:17;;;;;;;7.88;5.35;;;;;;;33.73;38.12;98562.91;5017354;28;20208;-74
2021/08/14 08:26:45;;;;;;;8.63;5.50;;;;;;;35.35;35.58;98567.56;5018335;28;20212;-73
2021/08/14 08:29:12;;;;;;;7.13;5.40;;;;;;;35.33;35.05;98560.75;5016758;28;20209;-76
2021/08/14 08:31:39;;;;;;;7.63;5.32;;;;;;;34.98;34.95;98565.94;5016345;28;20233;-75
2021/08/14 08:34:06;;;;;;;9.18;5.00;;;;;;;33.21;39.53;98553.31;5005188;28;20234;-73
2021/08/14 08:36:34;;;;;;;10.90;5.30;;;;;;;33.33;40.72;98545.13;5029721;28;20217;-70
2021/08/14 08:39:02;;;;;;;6.13;5.05;;;;;;;34.92;36.42;98558.19;5018954;28;21007;-68
2021/08/14 08:41:30;;;;;;;8.07;5.15;;;;;;;31.99;42.72;98534.97;5005111;28;20309;-67
2021/08/14 08:43:58;;;;;;;6.68;5.00;;;;;;;33.80;38.97;98547.41;5004371;28;20200;-69
2021/08/14 08:46:26;;;;;;;8.88;5.00;;;;;;;34.11;36.04;98561.63;5005723;28;20217;-72
2021/08/14 08:48:53;;;;;;;5.45;4.68;;;;;;;35.31;33.79;98557.53;5007179;28;20210;-68
2021/08/14 08:51:24;;;;;;;5.15;4.50;;;;;;;35.67;32.43;98555.50;5003966;28;20233;-69
2021/08/14 08:53:51;;;;;;;5.95;4.40;;;;;;;36.43;30.80;98563.72;5006010;28;20733;-68
2021/08/14 08:56:20;;;;;;;6.72;4.30;;;;;;;36.38;30.83;98564.78;5008840;28;20207;-68
2021/08/14 08:58:47;;;;;;;10.07;4.10;;;;;;;36.37;30.58;98557.59;5007355;28;20218;-72
2021/08/14 09:01:15;;;;;;;7.20;4.70;;;;;;;36.11;31.12;98560.00;5007849;28;20233;-67
2021/08/14 09:03:42;;;;;;;5.55;4.47;;;;;;;35.95;30.91;98566.66;5003370;28;20569;-66
2021/08/14 09:06:09;;;;;;;5.88;4.63;;;;;;;35.50;31.71;98557.72;5017685;28;20567;-66
2021/08/14 09:08:37;;;;;;;5.13;4.10;;;;;;;35.96;30.68;98562.75;5013764;28;20581;-65
2021/08/14 09:11:09;;;;;;;8.82;4.60;;;;;;;34.90;32.21;98552.97;5005808;28;20718;-67
2021/08/14 09:13:40;;;;;;;9.80;4.50;;;;;;;35.42;32.35;98555.88;5022513;28;20246;-72
2021/08/14 09:16:20;;;;;;;5.53;4.75;;;;;;;34.71;32.45;98558.25;5015371;28;20210;-74
2021/08/14 09:18:55;;;;;;;6.85;4.72;;;;;;;34.75;33.25;98548.88;5014762;28;20214;-78
2021/08/14 09:21:33;;;;;;;6.03;4.45;;;;;;;35.16;32.37;98553.44;5007761;28;20244;-74
2021/08/14 09:24:04;;;;;;;13.05;5.03;;;;;;;36.57;32.23;98548.19;5017750;28;20254;-80
2021/08/14 09:26:58;;;;;;;8.23;4.70;;;;;;;35.57;31.72;98555.16;5036059;28;20206;-79
2021/08/14 09:29:32;;;;;;;8.45;4.95;;;;;;;36.27;31.28;98551.75;5024601;28;20206;-80
2021/08/14 09:31:59;;;;;;;7.60;4.63;;;;;;;37.16;29.93;98551.75;5006887;28;20317;-79
2021/08/14 09:34:27;;;;;;;6.90;4.95;;;;;;;36.99;30.45;98546.56;5021261;28;20223;-78
2021/08/14 09:37:02;;;;;;;17.65;5.50;;;;;;;35.49;32.70;98540.25;5011535;28;20253;-77
2021/08/14 09:39:30;;;;;;;10.80;5.15;;;;;;;34.57;34.30;98535.59;5015815;28;20199;-79
2021/08/14 09:42:05;;;;;;;7.00;4.45;;;;;;;35.18;33.15;98535.28;5011908;28;20235;-76
2021/08/14 09:44:35;;;;;;;116.93;8.95;;;;;;;34.91;33.71;98523.28;5014911;28;20202;-78
2021/08/14 09:47:07;;;;;;;10.18;4.82;;;;;;;35.70;33.45;98523.44;5020115;28;20298;-75
2021/08/14 09:49:50;;;;;;;11.95;5.55;;;;;;;33.72;36.04;98522.53;5015306;28;20215;-78
2021/08/14 09:52:21;;;;;;;11.95;5.45;;;;;;;34.64;34.47;98519.16;5016203;28;20203;-76
2021/08/14 09:54:48;;;;;;;32.45;6.20;;;;;;;35.99;32.56;98523.94;5027295;28;20285;-74
2021/08/14 09:57:16;;;;;;;10.52;5.70;;;;;;;34.96;33.83;98518.31;5028122;28;20202;-74
2021/08/14 09:59:46;;;;;;;6.95;5.05;;;;;;;34.72;34.34;98505.19;5018211;28;20212;-74
2021/08/14 10:02:18;;;;;;;8.90;4.97;;;;;;;36.62;31.37;98519.31;5015049;28;20246;-75
2021/08/14 10:04:46;;;;;;;6.22;4.65;;;;;;;34.59;34.22;98502.75;5025288;28;20204;-73
2021/08/14 10:07:15;;;;;;;5.97;4.65;;;;;;;37.30;31.01;98504.75;5021256;28;20207;-74
2021/08/14 10:09:43;;;;;;;10.30;5.40;;;;;;;37.16;31.16;98503.63;5012366;28;20596;-74
2021/08/14 10:12:12;;;;;;;5.70;4.88;;;;;;;36.64;31.27;98497.50;5014926;28;20637;-75
2021/08/14 10:14:39;;;;;;;6.63;5.18;;;;;;;37.90;30.69;98503.31;5017130;28;20703;-69
2021/08/14 10:17:09;;;;;;;8.35;5.30;;;;;;;38.27;29.24;98502.50;5029808;28;20210;-73
2021/08/14 10:19:37;;;;;;;6.57;5.00;;;;;;;37.28;30.00;98497.94;5023354;28;20277;-72
2021/08/14 10:22:05;;;;;;;11.15;5.22;;;;;;;35.61;32.99;98479.09;5012273;28;20231;-77
2021/08/14 10:24:36;;;;;;;8.60;5.38;;;;;;;34.86;33.60;98474.38;5019180;28;20200;-76
2021/08/14 10:27:08;;;;;;;7.97;4.60;;;;;;;35.60;32.97;98474.72;5011724;28;20200;-76
2021/08/14 10:29:46;;;;;;;5.88;4.75;;;;;;;37.01;31.18;98477.41;5014206;28;20203;-79
2021/08/14 10:32:50;;;;;;;6.50;5.20;;;;;;;36.20;32.83;98468.94;5030970;28;20708;-72
2021/08/14 10:35:37;;;;;;;14.85;5.40;;;;;;;37.21;30.35;98476.31;5025649;28;20215;-71
2021/08/14 10:38:06;;;;;;;10.10;5.05;;;;;;;37.34;30.77;98475.00;5027867;28;20231;-72
2021/08/14 10:41:00;;;;;;;6.70;4.95;;;;;;;38.17;29.73;98474.38;5015817;28;20711;-71
2021/08/14 10:44:02;;;;;;;10.48;5.25;;;;;;;38.09;29.05;98472.66;5011583;28;20250;-71
2021/08/14 10:46:43;;;;;;;10.00;5.82;;;;;;;38.18;29.34;98462.06;5023185;28;20252;-72
2021/08/14 10:49:13;;;;;;;9.68;4.80;;;;;;;37.98;28.91;98463.25;5031459;28;20285;-74
2021/08/14 10:52:09;;;;;;;9.57;5.15;;;;;;;38.01;28.88;98468.94;5025493;28;20893;-73
2021/08/14 10:55:03;;;;;;;6.30;5.03;;;;;;;38.20;28.77;98462.50;5026498;28;20978;-71
2021/08/14 10:57:48;;;;;;;8.95;5.00;;;;;;;38.07;29.43;98458.25;5009854;28;20207;-79
2021/08/14 11:00:23;;;;;;;6.93;5.05;;;;;;;38.20;29.21;98456.94;5013213;28;20285;-76
2021/08/14 11:03:11;;;;;;;7.05;4.90;;;;;;;38.33;28.13;98455.56;5003495;28;20222;-76
2021/08/14 11:05:41;;;;;;;7.10;4.82;;;;;;;38.59;28.37;98453.66;5021172;28;20722;-77
2021/08/14 11:08:31;;;;;;;11.80;5.50;;;;;;;38.98;27.93;98451.53;5016332;28;20570;-78
2021/08/14 11:10:59;;;;;;;8.20;5.43;;;;;;;39.42;26.96;98455.41;5010689;28;20230;-77
2021/08/14 11:13:42;;;;;;;7.78;5.28;;;;;;;37.69;29.56;98441.56;5010729;28;20204;-76
2021/08/14 11:16:11;;;;;;;8.73;6.25;;;;;;;37.29;30.93;98433.53;5021402;28;20198;-74
2021/08/14 11:18:55;;;;;;;7.40;5.50;;;;;;;38.38;29.41;98424.56;5021938;28;20204;-76
2021/08/14 11:21:43;;;;;;;8.40;5.20;;;;;;;37.88;29.74;98433.19;5018752;28;20736;-75
2021/08/14 11:24:10;;;;;;;8.02;5.70;;;;;;;36.64;31.13;98433.50;5016452;28;20278;-74
2021/08/14 11:26:39;;;;;;;9.07;5.07;;;;;;;37.84;30.83;98418.38;5021375;28;20213;-73
2021/08/14 11:29:08;;;;;;;6.40;5.32;;;;;;;39.49;27.74;98427.53;5014082;28;20642;-74
2021/08/14 11:31:36;;;;;;;8.13;5.25;;;;;;;38.53;28.72;98429.22;5031223;28;20226;-75
2021/08/14 11:34:11;;;;;;;8.30;5.65;;;;;;;36.43;30.98;98427.44;5024883;28;20238;-75
2021/08/14 11:36:39;;;;;;;11.57;6.03;;;;;;;36.31;31.50;98421.97;5033933;28;20205;-73
2021/08/14 11:39:08;;;;;;;9.27;5.63;;;;;;;38.48;28.70;98423.97;5032922;28;20293;-73
2021/08/14 11:41:35;;;;;;;10.75;5.75;;;;;;;39.13;27.12;98422.63;5020702;28;20226;-72